COMO2: Grand River, Commerce, OK

Data processed at Thu May 23 2019 23:50


All information presented herein is the property of the government of the United States of America and may be revised or deleted at any time without prior notice.
Dissemination of this information without the expressed written consent of the Public Affairs Office, Tulsa District U.S. Army Corps of Engineers is strictly prohibited.
These data are gathered electronically and, as presented, have not undergone any form of quality control. These data are not guaranteed to be valid or correct.
Go to home page.
Go to station list.
Go to home page.

Upstream stations:

Downstream station:
Previous Day
Next Day
Current Day
    
SHEF ID:       COMO2     Neosho River nr Commerce, OK
STATION TYPE:  
Regulating: Stage =    15.00, Flow =    21743

               PRECIP     STAGE  STAGE(2)  RIV-FLOW  BAT-LOAD
                   in        ft        ft       cfs      volt
              Ccp-Rev   Ccp-Rev   Ccp-Rev   Ccp-Rev   Ccp-Rev
(US/Central)
05/23 00:00      0.55     22.12     22.12     58417     12.65
05/23 01:00      0.72     22.26     22.29     59933     12.65
05/23 02:00      0.36     22.40     22.40     61477     12.65
05/23 03:00      0.05     22.50     22.45     62597     12.65
05/23 04:00      0.91     22.72     22.63     65114     12.65
05/23 05:00      0.57     22.89     22.84     67108     12.57
05/23 06:00      0.37     23.14     23.16     70120     12.57
05/23 07:00      0.02     23.38     23.39     73103     12.57
05/23 08:00      0.04     23.64     23.67     76414     12.57
05/23 09:00      0.00     23.88     23.91     79549     12.97
05/23 10:00      0.00     24.10     24.13     82503     13.05
05/23 11:00      0.00     24.30     24.32     85257     12.97
05/23 12:00      0.00     24.46     24.51     87506     12.41
05/23 13:00      0.00     24.63     24.73     89943     13.37
05/23 14:00      0.00     24.74     24.83     91546     13.37
05/23 15:00      0.00     24.81     24.90     92576     13.21
05/23 16:00      0.00     24.90     25.02     93913     13.05
05/23 17:00      0.00     24.97     25.07     94963     12.97
05/23 18:00      0.00     25.02     25.13     95718     12.89
05/23 19:00      0.00     25.08     25.19     96629     12.81
05/23 20:00      0.00     25.11     25.24     97087     12.73
05/23 21:00      0.00     25.17     25.28     98008     12.73
05/23 22:00      0.00     25.21     25.35     98625     12.65
05/23 23:00      0.00     25.25     25.38     99246     12.65